createdAt,value
2018-04-12T11:04:50.496Z,96534.53
2018-04-12T11:07:19.518Z,96537.82
2018-04-12T11:09:47.771Z,96529.42
2018-04-12T11:12:16.824Z,96528.05
2018-04-12T11:14:45.049Z,96527.18
2018-04-12T11:17:13.333Z,96529.09
2018-04-12T11:19:41.577Z,96525.33
2018-04-12T11:22:10.601Z,96531.41
2018-04-12T11:24:38.850Z,96545.72
2018-04-12T11:27:07.926Z,96542.83
2018-04-12T11:29:36.130Z,96541.81
2018-04-12T11:32:04.386Z,96548.89
2018-04-12T11:34:32.684Z,96555.40
2018-04-12T11:37:00.941Z,96558.08
2018-04-12T11:39:29.141Z,96561.58
2018-04-12T11:41:57.402Z,96562.75
2018-04-12T11:44:26.422Z,96557.59
2018-04-12T11:46:54.665Z,96569.20
2018-04-12T11:49:23.697Z,96571.03
2018-04-12T11:51:51.944Z,96571.92
2018-04-12T11:54:20.964Z,96576.63
2018-04-12T11:56:49.235Z,96578.08
2018-04-12T11:59:17.474Z,96579.78
2018-04-12T12:01:46.488Z,96591.23
2018-04-12T12:04:14.753Z,96600.33
2018-04-12T12:06:43.784Z,96601.70
2018-04-12T12:09:12.040Z,96616.02
2018-04-12T12:11:40.284Z,96614.63
2018-04-12T12:14:09.301Z,96629.31
2018-04-12T12:16:37.549Z,96638.16
2018-04-12T12:19:06.566Z,96633.77
2018-04-12T12:21:34.818Z,96632.66
2018-04-12T12:24:03.074Z,96617.78
2018-04-12T12:26:31.328Z,96624.93
2018-04-12T12:28:59.581Z,96625.30
2018-04-12T12:31:27.836Z,96618.67
2018-04-12T12:33:56.849Z,96622.88
2018-04-12T12:36:25.113Z,96621.45
2018-04-12T12:38:53.365Z,96625.84
2018-04-12T12:41:22.372Z,96627.13
2018-04-12T12:43:51.400Z,96635.34
2018-04-12T12:46:19.652Z,96637.45
2018-04-12T12:48:47.908Z,96638.74
2018-04-12T12:51:16.926Z,96642.33
2018-04-12T12:53:45.184Z,96646.95
2018-04-12T12:56:14.205Z,96643.95
2018-04-12T12:58:42.464Z,96646.33
2018-04-12T13:01:10.717Z,96644.33
2018-04-12T13:03:39.786Z,96639.66
2018-04-12T13:06:07.992Z,96638.95
2018-04-12T13:08:37.004Z,96646.46
2018-04-12T13:11:05.251Z,96646.02
2018-04-12T13:13:33.509Z,96638.89
2018-04-12T13:16:01.760Z,96645.77
2018-04-12T13:18:30.009Z,96643.31
2018-04-12T13:20:58.257Z,96640.30
2018-04-12T13:23:27.298Z,96637.86
2018-04-12T13:25:55.548Z,96640.49
2018-04-12T13:28:23.801Z,96641.14
2018-04-12T13:30:52.822Z,96645.91
2018-04-12T13:33:21.071Z,96643.91
2018-04-12T13:35:50.089Z,96637.86
2018-04-12T13:38:18.336Z,96638.83
2018-04-12T13:40:47.374Z,96634.20
2018-04-12T13:43:15.626Z,96646.77
2018-04-12T13:45:43.885Z,96641.09
2018-04-12T13:48:12.898Z,96638.16
2018-04-12T13:50:41.154Z,96633.48
2018-04-12T13:53:10.165Z,96643.50
2018-04-12T13:55:38.425Z,96632.70
2018-04-12T13:58:07.448Z,96626.27
2018-04-12T14:00:35.704Z,96625.69
2018-04-12T14:03:03.949Z,96624.33
2018-04-12T14:05:32.218Z,96623.04
2018-04-12T14:08:00.460Z,96631.52
2018-04-12T14:10:28.708Z,96623.24
2018-04-12T14:12:56.961Z,96617.84
2018-04-12T14:15:25.981Z,96617.37
2018-04-12T14:17:54.233Z,96615.45
2018-04-12T14:20:23.240Z,96609.15
2018-04-12T14:22:51.496Z,96619.44
2018-04-12T14:25:20.508Z,96621.47
2018-04-12T14:27:48.760Z,96623.70
2018-04-12T14:30:17.009Z,96626.52
2018-04-12T14:32:45.265Z,96624.92
2018-04-12T14:35:13.514Z,96628.75
2018-04-12T14:37:41.772Z,96635.38
2018-04-12T14:40:10.900Z,96635.54
2018-04-12T14:42:39.152Z,96627.38
2018-04-12T14:45:08.223Z,96631.41
2018-04-12T14:47:36.434Z,96629.02
2018-04-12T14:50:04.686Z,96626.59
2018-04-12T14:52:33.710Z,96627.81
2018-04-12T14:55:01.965Z,96617.11
2018-04-12T14:57:30.991Z,96621.45
2018-04-12T14:59:59.241Z,96616.42
2018-04-12T15:02:27.508Z,96616.03
2018-04-12T15:04:56.526Z,96608.12
2018-04-12T15:07:24.780Z,96607.20
2018-04-12T15:09:53.804Z,96604.28
2018-04-12T15:12:22.057Z,96605.01
2018-04-12T15:14:51.073Z,96600.58
2018-04-12T15:17:19.323Z,96595.27
2018-04-12T15:19:47.582Z,96585.27
2018-04-12T15:22:16.606Z,96594.44
2018-04-12T15:24:44.862Z,96593.53
2018-04-12T15:27:13.879Z,96593.19
2018-04-12T15:29:42.138Z,96587.58
2018-04-12T15:32:10.427Z,96589.92
2018-04-12T15:34:38.652Z,96592.73
2018-04-12T15:37:06.906Z,96594.91
2018-04-12T15:39:35.161Z,96595.23
2018-04-12T15:42:03.414Z,96593.49
2018-04-12T15:44:31.671Z,96598.98
2018-04-12T15:47:00.681Z,96589.67
2018-04-12T15:49:28.941Z,96588.64
2018-04-12T15:51:57.953Z,96580.65
2018-04-12T15:54:26.221Z,96574.52
2018-04-12T15:56:55.236Z,96576.67
2018-04-12T15:59:23.501Z,96571.08
2018-04-12T16:01:51.761Z,96573.83
2018-04-12T16:04:20.798Z,96572.16
2018-04-12T16:06:49.045Z,96573.41
2018-04-12T16:09:17.298Z,96576.30
2018-04-12T16:11:46.322Z,96572.15
2018-04-12T16:14:14.573Z,96572.13
2018-04-12T16:16:43.597Z,96572.11
2018-04-12T16:19:11.851Z,96572.89
2018-04-12T16:21:40.114Z,96573.06
2018-04-12T16:24:09.129Z,96573.60
2018-04-12T16:26:37.389Z,96576.84
2018-04-12T16:29:06.412Z,96578.98
2018-04-12T16:31:34.664Z,96567.73
2018-04-12T16:34:02.919Z,96566.28
2018-04-12T16:36:31.179Z,96568.63
2018-04-12T16:38:59.470Z,96571.67
2018-04-12T16:41:27.688Z,96568.02
2018-04-12T16:43:55.937Z,96572.06
2018-04-12T16:46:24.964Z,96568.72
2018-04-12T16:48:53.218Z,96561.35
2018-04-12T16:51:21.477Z,96566.64
2018-04-12T16:53:50.490Z,96571.42
2018-04-12T16:56:18.755Z,96574.58
2018-04-12T16:58:47.006Z,96582.22
2018-04-12T17:01:15.248Z,96584.00
2018-04-12T17:03:43.511Z,96590.91
2018-04-12T17:06:11.759Z,96604.56
2018-04-12T17:08:40.014Z,96600.77
2018-04-12T17:11:09.027Z,96598.53
2018-04-12T17:13:37.296Z,96610.44
2018-04-12T17:16:06.305Z,96608.20
2018-04-12T17:18:34.569Z,96605.59
2018-04-12T17:21:03.588Z,96601.73
2018-04-12T17:23:31.843Z,96604.87
2018-04-12T17:26:00.101Z,96598.23
2018-04-12T17:28:29.124Z,96604.53
2018-04-12T17:30:57.546Z,96603.73
2018-04-12T17:33:25.801Z,96605.38
2018-04-12T17:35:54.050Z,96609.95
2018-04-12T17:38:22.317Z,96620.93
2018-04-12T17:40:50.568Z,96630.45
2018-04-12T17:43:19.595Z,96673.13
2018-04-12T17:45:47.840Z,96670.95
2018-04-12T17:48:16.869Z,96673.45
2018-04-12T17:50:45.121Z,96707.28
2018-04-12T17:53:14.155Z,96701.57
2018-04-12T17:55:42.410Z,96707.95
2018-04-12T17:58:10.660Z,96704.97
2018-04-12T18:00:39.696Z,96712.85
2018-04-12T18:03:07.937Z,96712.56
2018-04-12T18:05:36.200Z,96702.97
2018-04-12T18:08:05.219Z,96706.17
2018-04-12T18:10:33.477Z,96708.21
2018-04-12T18:13:02.497Z,96701.73
2018-04-12T18:15:30.770Z,96696.14
2018-04-12T18:17:59.041Z,96694.95
2018-04-12T18:20:27.305Z,96694.14
2018-04-12T18:22:55.561Z,96688.88
2018-04-12T18:25:24.593Z,96683.20
2018-04-12T18:27:52.847Z,96676.06
2018-04-12T18:30:21.108Z,96663.91
2018-04-12T18:32:50.124Z,96666.09
2018-04-12T18:35:18.380Z,96660.84
2018-04-12T18:37:47.402Z,96670.02
2018-04-12T18:40:15.676Z,96668.08
2018-04-12T18:42:43.926Z,96663.29
2018-04-12T18:45:12.947Z,96654.28
2018-04-12T18:47:41.208Z,96671.33
2018-04-12T18:50:09.468Z,96670.87
2018-04-12T18:52:38.487Z,96673.60
2018-04-12T18:55:06.740Z,96682.22
2018-04-12T18:57:35.769Z,96675.39
2018-04-12T19:00:04.016Z,96668.55
2018-04-12T19:02:32.280Z,96666.19
2018-04-12T19:05:01.288Z,96669.09
2018-04-12T19:07:29.559Z,96660.72
2018-04-12T19:09:58.569Z,96657.25
2018-04-12T19:12:26.830Z,96658.62
2018-04-12T19:14:55.844Z,96658.30
2018-04-12T19:17:24.119Z,96657.62
2018-04-12T19:19:52.370Z,96656.80
2018-04-12T19:22:21.385Z,96655.07
2018-04-12T19:24:49.640Z,96652.28
2018-04-12T19:27:17.901Z,96646.83
2018-04-12T19:29:46.924Z,96644.10
2018-04-12T19:32:15.172Z,96638.41
2018-04-12T19:34:44.193Z,96638.99
2018-04-12T19:37:12.441Z,96629.76
2018-04-12T19:39:41.461Z,96633.20
2018-04-12T19:42:09.718Z,96625.02
2018-04-12T19:44:38.742Z,96623.01
2018-04-12T19:47:06.997Z,96621.36
2018-04-12T19:49:35.251Z,96621.91
2018-04-12T19:52:04.261Z,96616.50
2018-04-12T19:54:32.521Z,96612.66
2018-04-12T19:57:01.552Z,96615.15
2018-04-12T19:59:29.812Z,96614.07
2018-04-12T20:01:58.063Z,96611.28
2018-04-12T20:04:27.319Z,96604.66
2018-04-12T20:06:55.692Z,96607.59
2018-04-12T20:09:24.062Z,96616.94
2018-04-12T20:11:52.529Z,96621.61
2018-04-12T20:14:20.869Z,96630.94
2018-04-12T20:16:49.309Z,96622.19
2018-04-12T20:19:17.815Z,96628.23
2018-04-12T20:21:47.111Z,96622.43
2018-04-12T20:24:16.552Z,96624.20
2018-04-12T20:26:44.961Z,96622.77
2018-04-12T20:29:13.652Z,96626.27
2018-04-12T20:31:42.510Z,96629.22
2018-04-12T20:34:11.100Z,96628.83
2018-04-12T20:36:39.775Z,96628.22
2018-04-12T20:39:08.476Z,96634.70
2018-04-12T20:41:37.060Z,96626.58
2018-04-12T20:44:05.664Z,96629.66
2018-04-12T20:46:33.934Z,96630.61
2018-04-12T20:49:02.196Z,96629.66
2018-04-12T20:51:30.458Z,96628.54
2018-04-12T20:53:58.710Z,96627.84
2018-04-12T20:56:27.745Z,96635.13
2018-04-12T20:58:56.009Z,96637.03
2018-04-12T21:01:24.261Z,96637.80
2018-04-12T21:03:53.293Z,96640.48
2018-04-12T21:06:21.572Z,96642.17
2018-04-12T21:08:49.842Z,96634.58
2018-04-12T21:11:18.095Z,96627.92
2018-04-12T21:13:46.357Z,96623.91
2018-04-12T21:16:15.385Z,96618.16
2018-04-12T21:18:43.637Z,96624.77
2018-04-12T21:21:11.903Z,96623.72
2018-04-12T21:23:40.939Z,96625.53
2018-04-12T21:26:09.195Z,96618.84
2018-04-12T21:28:37.447Z,96617.43
2018-04-12T21:31:06.474Z,96614.27
2018-04-12T21:33:34.724Z,96619.02
2018-04-12T21:36:03.003Z,96616.44
2018-04-12T21:38:32.026Z,96625.27
2018-04-12T21:41:00.285Z,96627.83
2018-04-12T21:43:28.537Z,96634.20
2018-04-12T21:45:57.561Z,96629.68
2018-04-12T21:48:25.812Z,96631.28
2018-04-12T21:50:54.848Z,96633.28
2018-04-12T21:53:23.102Z,96637.38
2018-04-12T21:55:51.365Z,96640.98
2018-04-12T21:58:19.621Z,96640.74
2018-04-12T22:00:48.662Z,96644.69
2018-04-12T22:03:16.911Z,96642.77
2018-04-12T22:05:45.166Z,96648.50
2018-04-12T22:08:14.182Z,96660.39
2018-04-12T22:10:42.448Z,96652.19
2018-04-12T22:13:11.469Z,96651.00
2018-04-12T22:15:39.716Z,96652.53
2018-04-12T22:18:07.981Z,96655.30
2018-04-12T22:20:37.003Z,96661.61
2018-04-12T22:23:05.261Z,96661.97
2018-04-12T22:25:34.282Z,96666.42
2018-04-12T22:28:02.538Z,96672.61
2018-04-12T22:30:30.788Z,96670.23
2018-04-12T22:32:59.821Z,96667.66
2018-04-12T22:35:28.074Z,96671.03
2018-04-12T22:37:57.101Z,96675.41
2018-04-12T22:40:25.349Z,96665.92
2018-04-12T22:42:53.633Z,96668.61
2018-04-12T22:45:21.887Z,96669.63
2018-04-12T22:47:50.907Z,96666.48
2018-04-12T22:50:19.172Z,96672.68
2018-04-12T22:52:48.187Z,96674.81
2018-04-12T22:55:16.444Z,96679.82
2018-04-12T22:57:44.693Z,96678.16
2018-04-12T23:00:13.723Z,96682.77
2018-04-12T23:05:15.566Z,96686.42
2018-04-12T23:07:44.580Z,96683.95
2018-04-12T23:10:12.855Z,96685.02
2018-04-12T23:12:41.865Z,96678.20
2018-04-12T23:15:10.129Z,96680.72
2018-04-12T23:17:38.385Z,96675.71
2018-04-12T23:20:07.410Z,96671.12
2018-04-12T23:22:35.671Z,96666.06
2018-04-12T23:25:03.922Z,96662.66
2018-04-12T23:27:32.955Z,96661.94
2018-04-12T23:30:01.205Z,96663.30
2018-04-12T23:32:30.249Z,96671.37
2018-04-12T23:34:58.500Z,96670.92
2018-04-12T23:37:26.761Z,96672.77
2018-04-12T23:39:55.021Z,96665.61
2018-04-12T23:42:24.049Z,96667.00
2018-04-12T23:44:52.303Z,96670.26
2018-04-12T23:47:20.572Z,96662.45
2018-04-12T23:49:49.589Z,96656.72
2018-04-12T23:52:17.849Z,96659.83
2018-04-12T23:54:46.103Z,96653.67
2018-04-12T23:57:15.153Z,96666.07
2018-04-12T23:59:43.407Z,96657.70
